sensor_id;sensor_type;location;lat;lon;timestamp;P1;durP1;ratioP1;P2;durP2;ratioP2
39050;SDS011;24805;55.852;37.644;2023-06-19T00:01:25;3.20;;;1.73;;
39050;SDS011;24805;55.852;37.644;2023-06-19T00:06:27;5.05;;;1.90;;
39050;SDS011;24805;55.852;37.644;2023-06-19T00:11:30;4.70;;;1.92;;
39050;SDS011;24805;55.852;37.644;2023-06-19T00:16:32;6.45;;;1.67;;
39050;SDS011;24805;55.852;37.644;2023-06-19T00:21:34;3.67;;;1.73;;
39050;SDS011;24805;55.852;37.644;2023-06-19T00:26:36;4.55;;;1.90;;
39050;SDS011;24805;55.852;37.644;2023-06-19T00:31:39;3.50;;;1.60;;
39050;SDS011;24805;55.852;37.644;2023-06-19T00:36:43;2.67;;;1.70;;
39050;SDS011;24805;55.852;37.644;2023-06-19T00:41:45;3.83;;;1.50;;
39050;SDS011;24805;55.852;37.644;2023-06-19T00:46:50;3.03;;;1.55;;
39050;SDS011;24805;55.852;37.644;2023-06-19T00:52:01;5.68;;;1.98;;
39050;SDS011;24805;55.852;37.644;2023-06-19T00:57:04;6.60;;;1.80;;
39050;SDS011;24805;55.852;37.644;2023-06-19T01:02:06;5.88;;;1.92;;
39050;SDS011;24805;55.852;37.644;2023-06-19T01:07:09;5.03;;;1.67;;
39050;SDS011;24805;55.852;37.644;2023-06-19T01:12:18;4.60;;;1.67;;
39050;SDS011;24805;55.852;37.644;2023-06-19T01:17:26;3.65;;;1.48;;
39050;SDS011;24805;55.852;37.644;2023-06-19T01:22:31;4.38;;;1.80;;
39050;SDS011;24805;55.852;37.644;2023-06-19T01:27:34;3.97;;;1.88;;
39050;SDS011;24805;55.852;37.644;2023-06-19T01:32:40;3.50;;;1.60;;
39050;SDS011;24805;55.852;37.644;2023-06-19T01:37:43;3.83;;;1.52;;
39050;SDS011;24805;55.852;37.644;2023-06-19T01:42:48;3.50;;;1.65;;
39050;SDS011;24805;55.852;37.644;2023-06-19T01:47:50;5.53;;;1.73;;
39050;SDS011;24805;55.852;37.644;2023-06-19T01:52:55;2.92;;;1.48;;
39050;SDS011;24805;55.852;37.644;2023-06-19T01:57:57;6.78;;;1.52;;
39050;SDS011;24805;55.852;37.644;2023-06-19T02:08:01;2.05;;;1.23;;
39050;SDS011;24805;55.852;37.644;2023-06-19T02:18:05;2.70;;;1.58;;
39050;SDS011;24805;55.852;37.644;2023-06-19T02:23:08;5.57;;;1.33;;
39050;SDS011;24805;55.852;37.644;2023-06-19T02:28:10;5.30;;;1.40;;
39050;SDS011;24805;55.852;37.644;2023-06-19T02:33:12;2.63;;;1.42;;
39050;SDS011;24805;55.852;37.644;2023-06-19T02:38:15;2.42;;;1.40;;
39050;SDS011;24805;55.852;37.644;2023-06-19T02:43:17;3.50;;;1.30;;
39050;SDS011;24805;55.852;37.644;2023-06-19T02:48:19;4.53;;;1.30;;
39050;SDS011;24805;55.852;37.644;2023-06-19T02:53:21;3.85;;;1.73;;
39050;SDS011;24805;55.852;37.644;2023-06-19T02:58:23;2.70;;;1.40;;
39050;SDS011;24805;55.852;37.644;2023-06-19T03:03:29;2.95;;;1.20;;
39050;SDS011;24805;55.852;37.644;2023-06-19T03:08:33;6.20;;;2.00;;
39050;SDS011;24805;55.852;37.644;2023-06-19T03:13:46;3.88;;;1.65;;
39050;SDS011;24805;55.852;37.644;2023-06-19T03:18:49;6.05;;;1.83;;
39050;SDS011;24805;55.852;37.644;2023-06-19T03:23:56;4.20;;;1.70;;
39050;SDS011;24805;55.852;37.644;2023-06-19T03:28:59;5.00;;;1.85;;
39050;SDS011;24805;55.852;37.644;2023-06-19T03:34:08;5.50;;;1.95;;
39050;SDS011;24805;55.852;37.644;2023-06-19T03:39:12;7.00;;;1.65;;
39050;SDS011;24805;55.852;37.644;2023-06-19T03:44:17;5.22;;;1.88;;
39050;SDS011;24805;55.852;37.644;2023-06-19T03:49:19;6.07;;;1.73;;
39050;SDS011;24805;55.852;37.644;2023-06-19T03:54:24;3.85;;;1.90;;
39050;SDS011;24805;55.852;37.644;2023-06-19T03:59:27;4.05;;;1.70;;
39050;SDS011;24805;55.852;37.644;2023-06-19T04:04:30;4.15;;;1.67;;
39050;SDS011;24805;55.852;37.644;2023-06-19T04:09:32;4.00;;;1.42;;
39050;SDS011;24805;55.852;37.644;2023-06-19T04:14:35;4.28;;;1.70;;
39050;SDS011;24805;55.852;37.644;2023-06-19T04:19:37;5.22;;;1.70;;
39050;SDS011;24805;55.852;37.644;2023-06-19T04:24:39;4.20;;;1.67;;
39050;SDS011;24805;55.852;37.644;2023-06-19T04:29:41;6.35;;;2.05;;
39050;SDS011;24805;55.852;37.644;2023-06-19T04:34:44;4.75;;;1.70;;
39050;SDS011;24805;55.852;37.644;2023-06-19T04:39:47;3.08;;;1.55;;
39050;SDS011;24805;55.852;37.644;2023-06-19T04:44:49;4.97;;;1.20;;
39050;SDS011;24805;55.852;37.644;2023-06-19T04:49:52;4.70;;;1.73;;
39050;SDS011;24805;55.852;37.644;2023-06-19T04:54:54;4.35;;;1.65;;
39050;SDS011;24805;55.852;37.644;2023-06-19T04:59:56;4.07;;;1.42;;
39050;SDS011;24805;55.852;37.644;2023-06-19T05:04:59;4.03;;;1.50;;
39050;SDS011;24805;55.852;37.644;2023-06-19T05:10:07;3.10;;;1.38;;
39050;SDS011;24805;55.852;37.644;2023-06-19T05:15:09;2.63;;;1.08;;
39050;SDS011;24805;55.852;37.644;2023-06-19T05:20:12;3.25;;;1.20;;
39050;SDS011;24805;55.852;37.644;2023-06-19T05:25:16;4.38;;;1.10;;
39050;SDS011;24805;55.852;37.644;2023-06-19T05:30:18;2.10;;;1.00;;
39050;SDS011;24805;55.852;37.644;2023-06-19T05:35:20;4.18;;;1.13;;
39050;SDS011;24805;55.852;37.644;2023-06-19T05:40:23;2.17;;;1.10;;
39050;SDS011;24805;55.852;37.644;2023-06-19T05:45:25;2.83;;;1.30;;
39050;SDS011;24805;55.852;37.644;2023-06-19T05:50:28;5.00;;;1.48;;
39050;SDS011;24805;55.852;37.644;2023-06-19T05:55:30;2.65;;;1.02;;
39050;SDS011;24805;55.852;37.644;2023-06-19T06:00:32;2.22;;;1.08;;
39050;SDS011;24805;55.852;37.644;2023-06-19T06:05:34;3.40;;;1.10;;
39050;SDS011;24805;55.852;37.644;2023-06-19T06:10:38;4.65;;;1.10;;
39050;SDS011;24805;55.852;37.644;2023-06-19T06:15:40;2.15;;;0.90;;
39050;SDS011;24805;55.852;37.644;2023-06-19T06:20:42;2.15;;;0.90;;
39050;SDS011;24805;55.852;37.644;2023-06-19T06:25:44;5.15;;;1.10;;
39050;SDS011;24805;55.852;37.644;2023-06-19T06:30:47;6.25;;;1.38;;
39050;SDS011;24805;55.852;37.644;2023-06-19T06:35:49;2.92;;;1.13;;
39050;SDS011;24805;55.852;37.644;2023-06-19T06:40:53;2.10;;;0.80;;
39050;SDS011;24805;55.852;37.644;2023-06-19T06:45:55;2.35;;;0.75;;
39050;SDS011;24805;55.852;37.644;2023-06-19T06:50:57;2.17;;;0.90;;
39050;SDS011;24805;55.852;37.644;2023-06-19T06:56:03;3.92;;;1.15;;
39050;SDS011;24805;55.852;37.644;2023-06-19T07:01:06;4.47;;;1.08;;
39050;SDS011;24805;55.852;37.644;2023-06-19T07:06:08;4.18;;;1.00;;
39050;SDS011;24805;55.852;37.644;2023-06-19T07:11:11;2.30;;;1.10;;
39050;SDS011;24805;55.852;37.644;2023-06-19T07:16:13;4.68;;;1.08;;
39050;SDS011;24805;55.852;37.644;2023-06-19T07:21:15;1.92;;;1.05;;
39050;SDS011;24805;55.852;37.644;2023-06-19T07:26:17;2.03;;;0.98;;
39050;SDS011;24805;55.852;37.644;2023-06-19T07:31:19;3.75;;;1.10;;
39050;SDS011;24805;55.852;37.644;2023-06-19T07:36:22;3.22;;;1.10;;
39050;SDS011;24805;55.852;37.644;2023-06-19T07:41:24;3.60;;;0.98;;
39050;SDS011;24805;55.852;37.644;2023-06-19T07:46:26;3.22;;;1.10;;
39050;SDS011;24805;55.852;37.644;2023-06-19T07:51:28;4.88;;;0.85;;
39050;SDS011;24805;55.852;37.644;2023-06-19T07:56:30;3.08;;;1.10;;
39050;SDS011;24805;55.852;37.644;2023-06-19T08:01:34;2.30;;;0.90;;
39050;SDS011;24805;55.852;37.644;2023-06-19T08:06:36;3.60;;;0.88;;
39050;SDS011;24805;55.852;37.644;2023-06-19T08:11:38;5.57;;;0.80;;
39050;SDS011;24805;55.852;37.644;2023-06-19T08:16:40;5.13;;;0.82;;
39050;SDS011;24805;55.852;37.644;2023-06-19T08:21:42;3.22;;;0.80;;
39050;SDS011;24805;55.852;37.644;2023-06-19T08:26:44;1.65;;;0.60;;
39050;SDS011;24805;55.852;37.644;2023-06-19T08:31:47;2.67;;;0.70;;
39050;SDS011;24805;55.852;37.644;2023-06-19T08:36:49;3.97;;;0.80;;
39050;SDS011;24805;55.852;37.644;2023-06-19T08:41:51;2.10;;;0.63;;
39050;SDS011;24805;55.852;37.644;2023-06-19T08:46:54;4.25;;;0.95;;
39050;SDS011;24805;55.852;37.644;2023-06-19T08:51:57;2.00;;;0.60;;
39050;SDS011;24805;55.852;37.644;2023-06-19T08:57:02;2.20;;;1.10;;
39050;SDS011;24805;55.852;37.644;2023-06-19T09:02:05;1.70;;;0.80;;
39050;SDS011;24805;55.852;37.644;2023-06-19T09:07:08;3.88;;;0.70;;
39050;SDS011;24805;55.852;37.644;2023-06-19T09:12:19;5.43;;;0.60;;
39050;SDS011;24805;55.852;37.644;2023-06-19T09:17:30;2.25;;;1.20;;
39050;SDS011;24805;55.852;37.644;2023-06-19T09:22:43;1.17;;;0.47;;
39050;SDS011;24805;55.852;37.644;2023-06-19T09:27:45;2.05;;;0.60;;
39050;SDS011;24805;55.852;37.644;2023-06-19T09:32:48;3.15;;;0.50;;
39050;SDS011;24805;55.852;37.644;2023-06-19T09:37:50;1.00;;;0.45;;
39050;SDS011;24805;55.852;37.644;2023-06-19T09:42:54;3.00;;;0.65;;
39050;SDS011;24805;55.852;37.644;2023-06-19T09:48:02;2.40;;;0.50;;
39050;SDS011;24805;55.852;37.644;2023-06-19T09:53:24;1.25;;;0.52;;
39050;SDS011;24805;55.852;37.644;2023-06-19T09:58:27;1.77;;;0.98;;
39050;SDS011;24805;55.852;37.644;2023-06-19T10:03:30;2.83;;;0.73;;
39050;SDS011;24805;55.852;37.644;2023-06-19T10:08:41;3.08;;;0.98;;
39050;SDS011;24805;55.852;37.644;2023-06-19T10:13:44;3.05;;;0.50;;
39050;SDS011;24805;55.852;37.644;2023-06-19T10:18:47;1.92;;;0.47;;
39050;SDS011;24805;55.852;37.644;2023-06-19T10:23:53;2.33;;;0.50;;
39050;SDS011;24805;55.852;37.644;2023-06-19T10:28:58;1.10;;;0.60;;
39050;SDS011;24805;55.852;37.644;2023-06-19T10:34:00;2.85;;;0.80;;
39050;SDS011;24805;55.852;37.644;2023-06-19T10:39:05;1.38;;;0.80;;
39050;SDS011;24805;55.852;37.644;2023-06-19T10:44:08;1.25;;;0.50;;
39050;SDS011;24805;55.852;37.644;2023-06-19T10:49:14;1.33;;;0.63;;
39050;SDS011;24805;55.852;37.644;2023-06-19T10:54:16;2.17;;;0.63;;
39050;SDS011;24805;55.852;37.644;2023-06-19T10:59:18;1.10;;;0.50;;
39050;SDS011;24805;55.852;37.644;2023-06-19T11:04:21;0.93;;;0.50;;
39050;SDS011;24805;55.852;37.644;2023-06-19T11:09:34;2.86;;;0.70;;
39050;SDS011;24805;55.852;37.644;2023-06-19T11:14:37;2.20;;;0.70;;
39050;SDS011;24805;55.852;37.644;2023-06-19T11:19:41;2.17;;;0.73;;
39050;SDS011;24805;55.852;37.644;2023-06-19T11:24:45;3.42;;;0.70;;
39050;SDS011;24805;55.852;37.644;2023-06-19T11:29:54;2.97;;;0.95;;
39050;SDS011;24805;55.852;37.644;2023-06-19T11:35:03;1.45;;;0.93;;
39050;SDS011;24805;55.852;37.644;2023-06-19T11:40:09;1.50;;;0.85;;
39050;SDS011;24805;55.852;37.644;2023-06-19T11:45:17;1.98;;;0.75;;
39050;SDS011;24805;55.852;37.644;2023-06-19T11:50:25;0.85;;;0.65;;
39050;SDS011;24805;55.852;37.644;2023-06-19T11:55:29;4.63;;;0.80;;
39050;SDS011;24805;55.852;37.644;2023-06-19T12:00:31;4.45;;;1.00;;
39050;SDS011;24805;55.852;37.644;2023-06-19T12:05:34;5.65;;;1.10;;
39050;SDS011;24805;55.852;37.644;2023-06-19T12:10:36;3.25;;;0.90;;
39050;SDS011;24805;55.852;37.644;2023-06-19T12:15:38;1.73;;;0.90;;
39050;SDS011;24805;55.852;37.644;2023-06-19T12:20:40;3.05;;;0.95;;
39050;SDS011;24805;55.852;37.644;2023-06-19T12:25:42;2.28;;;0.77;;
39050;SDS011;24805;55.852;37.644;2023-06-19T12:30:45;4.40;;;0.98;;
39050;SDS011;24805;55.852;37.644;2023-06-19T12:35:50;6.90;;;1.20;;
39050;SDS011;24805;55.852;37.644;2023-06-19T12:40:52;3.05;;;0.82;;
39050;SDS011;24805;55.852;37.644;2023-06-19T12:45:54;5.40;;;0.98;;
39050;SDS011;24805;55.852;37.644;2023-06-19T12:50:56;2.03;;;0.98;;
39050;SDS011;24805;55.852;37.644;2023-06-19T12:55:59;4.40;;;1.10;;
39050;SDS011;24805;55.852;37.644;2023-06-19T13:01:07;2.92;;;0.90;;
39050;SDS011;24805;55.852;37.644;2023-06-19T13:06:09;4.57;;;0.90;;
39050;SDS011;24805;55.852;37.644;2023-06-19T13:11:11;1.30;;;0.95;;
39050;SDS011;24805;55.852;37.644;2023-06-19T13:16:13;3.42;;;1.20;;
39050;SDS011;24805;55.852;37.644;2023-06-19T13:21:17;2.92;;;0.82;;
39050;SDS011;24805;55.852;37.644;2023-06-19T13:26:20;7.97;;;1.00;;
39050;SDS011;24805;55.852;37.644;2023-06-19T13:31:22;5.60;;;1.10;;
39050;SDS011;24805;55.852;37.644;2023-06-19T13:36:25;2.47;;;1.05;;
39050;SDS011;24805;55.852;37.644;2023-06-19T13:41:28;3.22;;;1.25;;
39050;SDS011;24805;55.852;37.644;2023-06-19T13:46:33;4.55;;;0.93;;
39050;SDS011;24805;55.852;37.644;2023-06-19T13:51:35;4.78;;;1.05;;
39050;SDS011;24805;55.852;37.644;2023-06-19T13:56:37;2.25;;;0.90;;
39050;SDS011;24805;55.852;37.644;2023-06-19T14:01:39;3.97;;;1.27;;
39050;SDS011;24805;55.852;37.644;2023-06-19T14:06:42;2.97;;;1.20;;
39050;SDS011;24805;55.852;37.644;2023-06-19T14:11:45;3.03;;;1.27;;
39050;SDS011;24805;55.852;37.644;2023-06-19T14:16:47;4.50;;;1.30;;
39050;SDS011;24805;55.852;37.644;2023-06-19T14:21:51;3.38;;;1.50;;
39050;SDS011;24805;55.852;37.644;2023-06-19T14:26:53;4.60;;;1.45;;
39050;SDS011;24805;55.852;37.644;2023-06-19T14:31:55;4.35;;;1.42;;
39050;SDS011;24805;55.852;37.644;2023-06-19T14:36:57;4.25;;;1.33;;
39050;SDS011;24805;55.852;37.644;2023-06-19T14:41:59;7.18;;;1.60;;
39050;SDS011;24805;55.852;37.644;2023-06-19T14:47:02;2.97;;;1.40;;
39050;SDS011;24805;55.852;37.644;2023-06-19T14:52:05;2.90;;;1.23;;
39050;SDS011;24805;55.852;37.644;2023-06-19T14:57:08;5.43;;;1.40;;
39050;SDS011;24805;55.852;37.644;2023-06-19T15:02:11;5.20;;;1.50;;
39050;SDS011;24805;55.852;37.644;2023-06-19T15:07:13;3.60;;;1.40;;
39050;SDS011;24805;55.852;37.644;2023-06-19T15:12:15;2.45;;;1.40;;
39050;SDS011;24805;55.852;37.644;2023-06-19T15:17:17;3.90;;;1.40;;
39050;SDS011;24805;55.852;37.644;2023-06-19T15:22:19;2.47;;;1.40;;
39050;SDS011;24805;55.852;37.644;2023-06-19T15:27:22;3.28;;;1.60;;
39050;SDS011;24805;55.852;37.644;2023-06-19T15:32:24;4.63;;;1.55;;
39050;SDS011;24805;55.852;37.644;2023-06-19T15:37:26;6.07;;;1.77;;
39050;SDS011;24805;55.852;37.644;2023-06-19T15:42:28;5.28;;;2.35;;
39050;SDS011;24805;55.852;37.644;2023-06-19T15:47:33;4.05;;;1.83;;
39050;SDS011;24805;55.852;37.644;2023-06-19T15:52:36;6.15;;;1.83;;
39050;SDS011;24805;55.852;37.644;2023-06-19T15:57:38;2.67;;;1.50;;
39050;SDS011;24805;55.852;37.644;2023-06-19T16:02:41;5.50;;;2.03;;
39050;SDS011;24805;55.852;37.644;2023-06-19T16:07:49;4.00;;;1.40;;
39050;SDS011;24805;55.852;37.644;2023-06-19T16:12:51;4.22;;;1.45;;
39050;SDS011;24805;55.852;37.644;2023-06-19T16:17:54;5.50;;;1.60;;
39050;SDS011;24805;55.852;37.644;2023-06-19T16:22:57;9.05;;;2.88;;
39050;SDS011;24805;55.852;37.644;2023-06-19T16:27:59;5.40;;;1.75;;
39050;SDS011;24805;55.852;37.644;2023-06-19T16:33:02;4.03;;;1.40;;
39050;SDS011;24805;55.852;37.644;2023-06-19T16:38:05;2.38;;;1.33;;
39050;SDS011;24805;55.852;37.644;2023-06-19T16:43:08;5.70;;;1.73;;
39050;SDS011;24805;55.852;37.644;2023-06-19T16:48:11;3.95;;;1.80;;
39050;SDS011;24805;55.852;37.644;2023-06-19T16:53:13;4.63;;;1.50;;
39050;SDS011;24805;55.852;37.644;2023-06-19T16:58:16;5.93;;;1.90;;
39050;SDS011;24805;55.852;37.644;2023-06-19T17:03:18;4.95;;;1.88;;
39050;SDS011;24805;55.852;37.644;2023-06-19T17:08:21;5.53;;;1.63;;
39050;SDS011;24805;55.852;37.644;2023-06-19T17:13:23;6.82;;;1.67;;
39050;SDS011;24805;55.852;37.644;2023-06-19T17:18:25;4.47;;;1.60;;
39050;SDS011;24805;55.852;37.644;2023-06-19T17:23:28;3.78;;;1.75;;
39050;SDS011;24805;55.852;37.644;2023-06-19T17:28:30;5.50;;;1.50;;
39050;SDS011;24805;55.852;37.644;2023-06-19T17:33:32;3.70;;;1.80;;
39050;SDS011;24805;55.852;37.644;2023-06-19T17:38:35;3.95;;;2.20;;
39050;SDS011;24805;55.852;37.644;2023-06-19T17:43:37;4.10;;;1.55;;
39050;SDS011;24805;55.852;37.644;2023-06-19T17:48:39;5.25;;;1.70;;
39050;SDS011;24805;55.852;37.644;2023-06-19T17:53:43;4.00;;;2.65;;
39050;SDS011;24805;55.852;37.644;2023-06-19T17:58:45;6.68;;;1.83;;
39050;SDS011;24805;55.852;37.644;2023-06-19T18:03:47;4.03;;;1.75;;
39050;SDS011;24805;55.852;37.644;2023-06-19T18:08:49;5.50;;;2.20;;
39050;SDS011;24805;55.852;37.644;2023-06-19T18:13:51;6.45;;;2.28;;
39050;SDS011;24805;55.852;37.644;2023-06-19T18:18:54;4.90;;;1.83;;
39050;SDS011;24805;55.852;37.644;2023-06-19T18:23:56;5.50;;;1.90;;
39050;SDS011;24805;55.852;37.644;2023-06-19T18:28:58;7.05;;;1.95;;
39050;SDS011;24805;55.852;37.644;2023-06-19T18:34:01;5.97;;;1.92;;
39050;SDS011;24805;55.852;37.644;2023-06-19T18:39:03;6.10;;;2.05;;
39050;SDS011;24805;55.852;37.644;2023-06-19T18:44:06;9.05;;;2.08;;
39050;SDS011;24805;55.852;37.644;2023-06-19T18:49:08;11.05;;;4.43;;
39050;SDS011;24805;55.852;37.644;2023-06-19T18:54:10;8.25;;;2.60;;
39050;SDS011;24805;55.852;37.644;2023-06-19T18:59:12;6.22;;;2.40;;
39050;SDS011;24805;55.852;37.644;2023-06-19T19:04:15;7.50;;;3.40;;
39050;SDS011;24805;55.852;37.644;2023-06-19T19:09:17;9.35;;;3.17;;
39050;SDS011;24805;55.852;37.644;2023-06-19T19:14:19;8.57;;;2.80;;
39050;SDS011;24805;55.852;37.644;2023-06-19T19:19:21;10.30;;;2.85;;
39050;SDS011;24805;55.852;37.644;2023-06-19T19:24:23;6.90;;;2.90;;
39050;SDS011;24805;55.852;37.644;2023-06-19T19:29:25;6.15;;;3.40;;
39050;SDS011;24805;55.852;37.644;2023-06-19T19:34:28;6.47;;;3.25;;
39050;SDS011;24805;55.852;37.644;2023-06-19T19:39:30;6.68;;;3.05;;
39050;SDS011;24805;55.852;37.644;2023-06-19T19:44:35;5.93;;;3.65;;
39050;SDS011;24805;55.852;37.644;2023-06-19T19:49:38;5.63;;;3.00;;
39050;SDS011;24805;55.852;37.644;2023-06-19T19:54:40;5.88;;;3.28;;
39050;SDS011;24805;55.852;37.644;2023-06-19T19:59:42;5.35;;;2.80;;
39050;SDS011;24805;55.852;37.644;2023-06-19T20:04:44;5.45;;;2.75;;
39050;SDS011;24805;55.852;37.644;2023-06-19T20:09:46;6.13;;;2.88;;
39050;SDS011;24805;55.852;37.644;2023-06-19T20:14:48;10.25;;;5.13;;
39050;SDS011;24805;55.852;37.644;2023-06-19T20:19:51;8.90;;;3.05;;
39050;SDS011;24805;55.852;37.644;2023-06-19T20:24:53;6.85;;;2.95;;
39050;SDS011;24805;55.852;37.644;2023-06-19T20:29:55;8.85;;;2.40;;
39050;SDS011;24805;55.852;37.644;2023-06-19T20:34:57;5.32;;;2.50;;
39050;SDS011;24805;55.852;37.644;2023-06-19T20:39:59;8.35;;;2.88;;
39050;SDS011;24805;55.852;37.644;2023-06-19T20:45:09;12.73;;;3.53;;
39050;SDS011;24805;55.852;37.644;2023-06-19T20:50:11;8.88;;;3.20;;
39050;SDS011;24805;55.852;37.644;2023-06-19T20:55:16;9.00;;;3.58;;
39050;SDS011;24805;55.852;37.644;2023-06-19T21:00:18;9.65;;;3.17;;
39050;SDS011;24805;55.852;37.644;2023-06-19T21:05:21;12.98;;;5.20;;
39050;SDS011;24805;55.852;37.644;2023-06-19T21:10:23;8.32;;;2.97;;
39050;SDS011;24805;55.852;37.644;2023-06-19T21:15:26;7.85;;;2.70;;
39050;SDS011;24805;55.852;37.644;2023-06-19T21:20:28;7.57;;;2.92;;
39050;SDS011;24805;55.852;37.644;2023-06-19T21:25:31;7.60;;;3.00;;
39050;SDS011;24805;55.852;37.644;2023-06-19T21:30:33;8.43;;;2.75;;
39050;SDS011;24805;55.852;37.644;2023-06-19T21:35:35;8.88;;;2.83;;
39050;SDS011;24805;55.852;37.644;2023-06-19T21:40:37;9.90;;;3.42;;
39050;SDS011;24805;55.852;37.644;2023-06-19T21:45:39;7.72;;;3.20;;
39050;SDS011;24805;55.852;37.644;2023-06-19T21:50:41;5.80;;;2.70;;
39050;SDS011;24805;55.852;37.644;2023-06-19T21:55:44;7.60;;;3.55;;
39050;SDS011;24805;55.852;37.644;2023-06-19T22:00:46;7.15;;;3.50;;
39050;SDS011;24805;55.852;37.644;2023-06-19T22:05:48;9.13;;;3.28;;
39050;SDS011;24805;55.852;37.644;2023-06-19T22:10:50;9.52;;;4.63;;
39050;SDS011;24805;55.852;37.644;2023-06-19T22:15:52;5.18;;;2.72;;
39050;SDS011;24805;55.852;37.644;2023-06-19T22:20:56;9.55;;;3.35;;
39050;SDS011;24805;55.852;37.644;2023-06-19T22:25:58;8.55;;;3.42;;
39050;SDS011;24805;55.852;37.644;2023-06-19T22:31:00;16.88;;;6.43;;
39050;SDS011;24805;55.852;37.644;2023-06-19T22:36:02;10.95;;;3.35;;
39050;SDS011;24805;55.852;37.644;2023-06-19T22:41:05;9.88;;;3.45;;
39050;SDS011;24805;55.852;37.644;2023-06-19T22:46:09;11.05;;;3.80;;
39050;SDS011;24805;55.852;37.644;2023-06-19T22:51:11;12.18;;;3.92;;
39050;SDS011;24805;55.852;37.644;2023-06-19T22:56:13;10.88;;;5.38;;
39050;SDS011;24805;55.852;37.644;2023-06-19T23:01:16;10.32;;;3.85;;
39050;SDS011;24805;55.852;37.644;2023-06-19T23:06:26;9.75;;;3.92;;
39050;SDS011;24805;55.852;37.644;2023-06-19T23:11:29;11.10;;;3.78;;
39050;SDS011;24805;55.852;37.644;2023-06-19T23:16:31;11.90;;;4.15;;
39050;SDS011;24805;55.852;37.644;2023-06-19T23:21:33;16.42;;;4.40;;
39050;SDS011;24805;55.852;37.644;2023-06-19T23:26:36;9.65;;;4.13;;
39050;SDS011;24805;55.852;37.644;2023-06-19T23:31:38;12.65;;;4.43;;
39050;SDS011;24805;55.852;37.644;2023-06-19T23:36:42;12.13;;;5.10;;
39050;SDS011;24805;55.852;37.644;2023-06-19T23:41:45;15.38;;;4.45;;
39050;SDS011;24805;55.852;37.644;2023-06-19T23:46:47;19.02;;;4.90;;
39050;SDS011;24805;55.852;37.644;2023-06-19T23:51:49;19.23;;;5.22;;
39050;SDS011;24805;55.852;37.644;2023-06-19T23:56:51;16.67;;;5.50;;
